createdAt,value
2023-02-10T00:00:18.184Z,15.7143
2023-02-10T00:01:18.224Z,15
2023-02-10T00:02:18.288Z,14.7143
2023-02-10T00:03:18.300Z,15.9286
2023-02-10T00:04:18.347Z,15.1429
2023-02-10T00:05:18.367Z,14.6429
2023-02-10T00:06:18.389Z,15.9286
2023-02-10T00:07:18.425Z,16.4286
2023-02-10T00:08:18.449Z,15.6429
2023-02-10T00:09:18.517Z,17
2023-02-10T00:10:18.514Z,16.2143
2023-02-10T00:11:18.549Z,16
2023-02-10T00:12:18.581Z,15.9286
2023-02-10T00:13:18.608Z,16.8571
2023-02-10T00:14:18.666Z,16.3571
2023-02-10T00:15:18.683Z,16.7143
2023-02-10T00:16:18.766Z,16.6429
2023-02-10T00:17:18.757Z,16.3571
2023-02-10T00:18:18.794Z,15.8571
2023-02-10T00:19:18.817Z,16.3571
2023-02-10T00:20:18.861Z,16.3571
2023-02-10T00:21:18.895Z,16
2023-02-10T00:22:18.919Z,16.1429
2023-02-10T00:23:18.959Z,15.9286
2023-02-10T00:24:18.992Z,15.9286
2023-02-10T00:25:19.035Z,16.1429
2023-02-10T00:26:19.070Z,15.6429
2023-02-10T00:27:19.096Z,16.7143
2023-02-10T00:28:19.189Z,16
2023-02-10T00:29:19.148Z,16.5
2023-02-10T00:30:19.176Z,15.5
2023-02-10T00:31:19.255Z,16.3571
2023-02-10T00:32:19.257Z,16.4286
2023-02-10T00:33:19.328Z,15.9286
2023-02-10T00:34:19.343Z,16.2143
2023-02-10T00:35:19.368Z,16
2023-02-10T00:36:19.382Z,17
2023-02-10T00:37:19.428Z,16.6429
2023-02-10T00:38:19.460Z,16.6429
2023-02-10T00:39:19.483Z,16.6429
2023-02-10T00:40:19.521Z,15.5
2023-02-10T00:41:19.565Z,16.3571
2023-02-10T00:42:19.592Z,17.5
2023-02-10T00:43:19.617Z,16
2023-02-10T00:44:19.672Z,16.3571
2023-02-10T00:45:19.695Z,17.3571
2023-02-10T00:46:19.837Z,16.1429
2023-02-10T00:47:19.757Z,16.5
2023-02-10T00:48:19.802Z,17.6429
2023-02-10T00:49:19.823Z,16.4286
2023-02-10T00:50:19.853Z,16.6429
2023-02-10T00:51:19.900Z,16.3571
2023-02-10T00:52:19.929Z,16.6429
2023-02-10T00:53:19.966Z,16.8571
2023-02-10T00:54:19.992Z,17
2023-02-10T00:55:20.036Z,16.1429
2023-02-10T00:56:20.068Z,16.6429
2023-02-10T00:57:20.114Z,15.5
2023-02-10T00:58:20.151Z,17.2143
2023-02-10T00:59:20.162Z,17.2143
2023-02-10T01:00:20.198Z,17.1429
2023-02-10T01:01:20.235Z,16.4286
2023-02-10T01:02:20.277Z,18.2143
2023-02-10T01:03:20.466Z,16.1429
2023-02-10T01:04:20.343Z,16.8571
2023-02-10T01:05:20.376Z,17.5
2023-02-10T01:06:20.543Z,17.8571
2023-02-10T01:07:20.460Z,17.8571
2023-02-10T01:08:20.473Z,17.2143
2023-02-10T01:09:20.502Z,17.9286
2023-02-10T01:10:20.544Z,17.4286
2023-02-10T01:11:20.569Z,17.1429
2023-02-10T01:12:20.614Z,17.5
2023-02-10T01:13:20.636Z,16.2143
2023-02-10T01:14:20.680Z,17.7143
2023-02-10T01:15:20.696Z,17.4286
2023-02-10T01:16:20.787Z,18.1429
2023-02-10T01:17:20.773Z,16.7143
2023-02-10T01:18:20.810Z,17.2143
2023-02-10T01:19:20.836Z,18
2023-02-10T01:20:20.872Z,17.2143
2023-02-10T01:21:20.920Z,18
2023-02-10T01:22:20.942Z,17.9286
2023-02-10T01:23:20.987Z,17.5
2023-02-10T01:24:21.031Z,18.2143
2023-02-10T01:25:21.041Z,17.7143
2023-02-10T01:26:21.073Z,17.3571
2023-02-10T01:27:21.098Z,18
2023-02-10T01:28:21.184Z,17.3571
2023-02-10T01:29:21.164Z,17.9286
2023-02-10T01:30:21.196Z,17.9286
2023-02-10T01:31:21.285Z,17.1429
2023-02-10T01:32:21.254Z,17.4286
2023-02-10T01:33:21.318Z,17.8571
2023-02-10T01:34:21.325Z,17.3571
2023-02-10T01:35:21.360Z,17
2023-02-10T01:36:21.398Z,18.3571
2023-02-10T01:37:21.431Z,17.5
2023-02-10T01:38:21.483Z,16.6429
2023-02-10T01:39:21.508Z,18.1429
2023-02-10T01:40:21.543Z,17.5
2023-02-10T01:41:21.584Z,18
2023-02-10T01:42:21.624Z,18.1429
2023-02-10T01:43:21.651Z,16.9286
2023-02-10T01:44:21.687Z,17.7143
2023-02-10T01:45:21.719Z,17.6429
2023-02-10T01:46:21.786Z,17.5
2023-02-10T01:47:21.780Z,17.7143
2023-02-10T01:48:21.811Z,18.1429
2023-02-10T01:49:21.850Z,18.6429
2023-02-10T01:50:21.880Z,18
2023-02-10T01:51:21.909Z,17.5
2023-02-10T01:52:21.966Z,18.5
2023-02-10T01:53:22.002Z,16.5
2023-02-10T01:54:22.028Z,16.9286
2023-02-10T01:55:22.061Z,18
2023-02-10T01:56:22.102Z,18.6429
2023-02-10T01:57:22.130Z,18.5
2023-02-10T01:58:22.186Z,18.1429
2023-02-10T01:59:22.206Z,17.7143
2023-02-10T02:00:22.232Z,18.1429
2023-02-10T02:01:22.310Z,17.3571
2023-02-10T02:02:22.357Z,17.7143
2023-02-10T02:03:22.336Z,18.2143
2023-02-10T02:04:22.361Z,18.2143
2023-02-10T02:05:22.394Z,18
2023-02-10T02:06:22.432Z,18.7143
2023-02-10T02:07:22.475Z,17.9286
2023-02-10T02:08:22.497Z,18
2023-02-10T02:09:22.535Z,18.2143
2023-02-10T02:10:22.577Z,17.9286
2023-02-10T02:11:22.611Z,18.4286
2023-02-10T02:12:22.630Z,17.7143
2023-02-10T02:13:22.665Z,18.4286
2023-02-10T02:14:22.688Z,18
2023-02-10T02:15:22.724Z,17
2023-02-10T02:16:22.859Z,18.4286
2023-02-10T02:17:22.792Z,17.4286
2023-02-10T02:18:22.827Z,18
2023-02-10T02:19:22.867Z,17.9286
2023-02-10T02:20:22.920Z,18.4286
2023-02-10T02:21:22.944Z,17.9286
2023-02-10T02:22:22.974Z,18.9286
2023-02-10T02:23:23.055Z,18.4286
2023-02-10T02:24:23.047Z,17.7143
2023-02-10T02:25:23.084Z,17.9286
2023-02-10T02:26:23.117Z,17.3571
2023-02-10T02:27:23.144Z,18.6429
2023-02-10T02:28:23.217Z,17.7143
2023-02-10T02:29:23.207Z,17.8571
2023-02-10T02:30:23.248Z,18.7143
2023-02-10T02:31:23.271Z,18.3571
2023-02-10T02:32:23.294Z,18
2023-02-10T02:33:23.329Z,18.5
2023-02-10T02:34:23.364Z,18.4286
2023-02-10T02:35:23.407Z,18.8571
2023-02-10T02:36:23.439Z,17.7143
2023-02-10T02:37:23.460Z,18.5
2023-02-10T02:38:23.500Z,19.4286
2023-02-10T02:39:23.527Z,18.1429
2023-02-10T02:40:23.589Z,19
2023-02-10T02:41:23.606Z,18.6429
2023-02-10T02:42:23.635Z,19.2143
2023-02-10T02:43:23.674Z,18.6429
2023-02-10T02:44:23.706Z,18.5
2023-02-10T02:45:23.743Z,17.8571
2023-02-10T02:46:23.789Z,18.4286
2023-02-10T02:47:23.858Z,18.6429
2023-02-10T02:48:23.855Z,19.3571
2023-02-10T02:49:23.888Z,18.6429
2023-02-10T02:50:23.924Z,19.3571
2023-02-10T02:51:23.976Z,19.9286
2023-02-10T02:52:24.006Z,18.9286
2023-02-10T02:53:24.043Z,19.1429
2023-02-10T02:54:24.062Z,19.4286
2023-02-10T02:55:24.105Z,19.3571
2023-02-10T02:56:24.132Z,19.5
2023-02-10T02:57:24.191Z,20
2023-02-10T02:58:24.203Z,19.9286
2023-02-10T02:59:24.239Z,19.6429
2023-02-10T03:00:24.292Z,19.5
2023-02-10T03:01:24.325Z,19.5
2023-02-10T03:02:24.331Z,19.5
2023-02-10T03:03:24.372Z,19.8571
2023-02-10T03:04:24.507Z,20.5
2023-02-10T03:05:24.428Z,19.6429
2023-02-10T03:06:24.463Z,19.1429
2023-02-10T03:07:24.486Z,21.5
2023-02-10T03:08:24.515Z,20.8571
2023-02-10T03:09:24.543Z,19.5
2023-02-10T03:10:24.589Z,21
2023-02-10T03:11:24.608Z,20.7143
2023-02-10T03:12:24.644Z,21
2023-02-10T03:13:24.681Z,21.2143
2023-02-10T03:14:24.710Z,20.7143
2023-02-10T03:15:24.742Z,21.7143
2023-02-10T03:16:24.785Z,21
2023-02-10T03:17:24.815Z,21.6429
2023-02-10T03:18:24.846Z,20.9286
2023-02-10T03:19:24.876Z,20.8571
2023-02-10T03:20:24.909Z,21.8571
2023-02-10T03:21:24.935Z,20.9286
2023-02-10T03:22:24.971Z,21.5
2023-02-10T03:23:25.010Z,21.8571
2023-02-10T03:24:25.036Z,23.5
2023-02-10T03:25:25.068Z,22.4286
2023-02-10T03:26:25.117Z,23.2143
2023-02-10T03:27:25.136Z,22.9286
2023-02-10T03:28:25.235Z,23.3571
2023-02-10T03:29:25.197Z,23.7143
2023-02-10T03:30:25.245Z,23.9286
2023-02-10T03:31:25.380Z,23.8571
2023-02-10T03:32:25.318Z,23.7143
2023-02-10T03:33:25.342Z,23.6429
2023-02-10T03:34:25.366Z,24.1429
2023-02-10T03:35:25.397Z,23.7143
2023-02-10T03:36:25.488Z,23.4286
2023-02-10T03:37:25.481Z,24.1429
2023-02-10T03:38:25.514Z,23.3571
2023-02-10T03:39:25.534Z,23.7143
2023-02-10T03:40:25.571Z,23.8571
2023-02-10T03:41:25.602Z,24.9286
2023-02-10T03:42:25.641Z,24.8571
2023-02-10T03:43:25.666Z,23.7143
2023-02-10T03:44:25.715Z,23.9286
2023-02-10T03:45:25.742Z,24.2143
2023-02-10T03:46:25.859Z,24.7143
2023-02-10T03:47:25.807Z,25
2023-02-10T03:48:25.845Z,25.6429
2023-02-10T03:49:25.883Z,25.8571
2023-02-10T03:50:25.917Z,25.2143
2023-02-10T03:51:25.959Z,24.7143
2023-02-10T03:52:25.981Z,25.4286
2023-02-10T03:53:26.018Z,25.8571
2023-02-10T03:54:26.045Z,26.6429
2023-02-10T03:55:26.083Z,25.1429
2023-02-10T03:56:26.127Z,26.3571
2023-02-10T03:57:26.164Z,26.1429
2023-02-10T03:58:26.200Z,27.1429
2023-02-10T03:59:26.257Z,26
2023-02-10T04:00:26.260Z,26
2023-02-10T04:01:26.329Z,26.2143
2023-02-10T04:02:26.332Z,25.9286
2023-02-10T04:03:26.378Z,26.9286
2023-02-10T04:04:26.392Z,25.8571
2023-02-10T04:05:26.437Z,26
2023-02-10T04:06:26.445Z,27.7143
2023-02-10T04:07:26.484Z,27.2143
2023-02-10T04:08:26.514Z,28
2023-02-10T04:09:26.538Z,27.6429
2023-02-10T04:10:26.581Z,29.5
2023-02-10T04:11:26.609Z,28.3571
2023-02-10T04:12:26.645Z,27.8571
2023-02-10T04:13:26.683Z,27.8571
2023-02-10T04:14:26.730Z,28
2023-02-10T04:15:26.765Z,28.8571
2023-02-10T04:16:26.878Z,28.4286
2023-02-10T04:17:26.827Z,27.8571
2023-02-10T04:18:26.868Z,28.1429
2023-02-10T04:19:26.910Z,28.7143
2023-02-10T04:20:26.941Z,27
2023-02-10T04:21:26.980Z,27.6429
2023-02-10T04:22:27.005Z,28.8571
2023-02-10T04:23:27.035Z,28.3571
2023-02-10T04:24:27.065Z,29.7143
2023-02-10T04:25:27.109Z,27.8571
2023-02-10T04:26:27.129Z,27.8571
2023-02-10T04:27:27.169Z,28.5
2023-02-10T04:28:27.323Z,27.3571
2023-02-10T04:29:27.240Z,28.1429
2023-02-10T04:30:27.277Z,28.2143
2023-02-10T04:31:27.540Z,29.3571
2023-02-10T04:32:27.387Z,28.4286
2023-02-10T04:33:27.381Z,28.3571
2023-02-10T04:34:27.427Z,27.1429
2023-02-10T04:35:27.449Z,28.6429
2023-02-10T04:36:27.489Z,28.7143
2023-02-10T04:37:27.535Z,29.4286
2023-02-10T04:38:27.557Z,28.7143
2023-02-10T04:39:27.589Z,29.2143
2023-02-10T04:40:27.633Z,27.7143
2023-02-10T04:41:27.646Z,29.5
2023-02-10T04:42:27.681Z,28.9286
2023-02-10T04:43:27.718Z,27.8571
2023-02-10T04:44:27.763Z,30.5
2023-02-10T04:45:27.776Z,29.8571
2023-02-10T04:46:27.846Z,28.3571
2023-02-10T04:47:27.862Z,30.6429
2023-02-10T04:48:27.880Z,29.5
2023-02-10T04:49:27.920Z,30.1429
2023-02-10T04:50:27.943Z,30.4286
2023-02-10T04:51:27.988Z,29.6429
2023-02-10T04:52:28.024Z,29.6429
2023-02-10T04:53:28.093Z,30.1429
2023-02-10T04:54:28.102Z,29.9286
2023-02-10T04:55:28.122Z,30
2023-02-10T04:56:28.164Z,29.8571
2023-02-10T04:57:28.200Z,30
2023-02-10T04:58:28.234Z,30.4286
2023-02-10T04:59:28.254Z,30.3571
2023-02-10T05:00:28.374Z,31.3571
2023-02-10T05:01:28.307Z,30.4286
2023-02-10T05:02:28.343Z,31.8571
2023-02-10T05:03:28.375Z,29.8571
2023-02-10T05:04:28.414Z,30.9286
2023-02-10T05:05:28.448Z,30.6429
2023-02-10T05:06:28.484Z,29.2143
2023-02-10T05:07:28.510Z,29.6429
2023-02-10T05:08:28.544Z,31.6429
2023-02-10T05:09:28.585Z,31
2023-02-10T05:10:28.619Z,30.7143
2023-02-10T05:11:28.636Z,31.6429
2023-02-10T05:12:28.672Z,30.7143
2023-02-10T05:13:28.711Z,31.4286
2023-02-10T05:14:28.774Z,31.6429
2023-02-10T05:15:28.767Z,30.8571
2023-02-10T05:16:28.874Z,31.3571
2023-02-10T05:17:28.841Z,30.8571
2023-02-10T05:18:28.867Z,32.7143
2023-02-10T05:19:28.928Z,30
2023-02-10T05:20:28.959Z,30.4286
2023-02-10T05:21:28.984Z,31
2023-02-10T05:22:29.015Z,31.6429
2023-02-10T05:23:29.062Z,31.4286
2023-02-10T05:24:29.104Z,33
2023-02-10T05:25:29.125Z,30.6429
2023-02-10T05:26:29.174Z,32.6429
2023-02-10T05:27:29.198Z,32.4286
2023-02-10T05:28:29.261Z,31.9286
2023-02-10T05:29:29.267Z,30.9286
2023-02-10T05:30:29.433Z,31.9286
2023-02-10T05:31:29.471Z,31.5
2023-02-10T05:32:29.370Z,34.2143
2023-02-10T05:33:29.401Z,33.6429
2023-02-10T05:34:29.440Z,32.2143
2023-02-10T05:35:29.473Z,32.5
2023-02-10T05:36:29.514Z,32.4286
2023-02-10T05:37:29.545Z,32.9286
2023-02-10T05:38:29.579Z,32.4286
2023-02-10T05:39:29.612Z,32.8571
2023-02-10T05:40:29.637Z,33.5
2023-02-10T05:41:29.681Z,32.7143
2023-02-10T05:42:29.711Z,32.4286
2023-02-10T05:43:29.735Z,32.2143
2023-02-10T05:44:29.779Z,33.1429
2023-02-10T05:45:29.874Z,32.9286
2023-02-10T05:46:29.839Z,32.2143
2023-02-10T05:47:29.876Z,32.3571
2023-02-10T05:48:29.908Z,31.7143
2023-02-10T05:49:29.956Z,33.7143
2023-02-10T05:50:29.987Z,32.9286
2023-02-10T05:51:30.010Z,33.1429
2023-02-10T05:52:30.054Z,32.9286
2023-02-10T05:53:30.083Z,31.1429
2023-02-10T05:54:30.112Z,32
2023-02-10T05:55:30.149Z,32.4286
2023-02-10T05:56:30.166Z,31.4286
2023-02-10T05:57:30.204Z,31.9286
2023-02-10T05:58:30.240Z,31.4286
2023-02-10T05:59:30.272Z,31.8571
2023-02-10T06:00:30.298Z,31.3571
2023-02-10T06:01:30.328Z,33.4286
2023-02-10T06:02:30.401Z,31.5
2023-02-10T06:03:30.461Z,32.8571
2023-02-10T06:04:30.443Z,30.7143
2023-02-10T06:05:30.477Z,31.9286
2023-02-10T06:06:30.497Z,32.7143
2023-02-10T06:07:30.538Z,32.5
2023-02-10T06:08:30.582Z,31.3571
2023-02-10T06:09:30.601Z,32.5
2023-02-10T06:10:30.643Z,32.6429
2023-02-10T06:11:30.674Z,32.7143
2023-02-10T06:12:30.705Z,32.4286
2023-02-10T06:13:30.742Z,32.7143
2023-02-10T06:14:30.771Z,32.9286
2023-02-10T06:15:30.795Z,31.5
2023-02-10T06:16:30.836Z,32.9286
2023-02-10T06:17:30.865Z,32.3571
2023-02-10T06:18:30.904Z,32.1429
2023-02-10T06:19:30.955Z,32.2143
2023-02-10T06:20:30.986Z,32
2023-02-10T06:21:31.003Z,32.4286
2023-02-10T06:22:31.047Z,31.4286
2023-02-10T06:23:31.067Z,31.2143
2023-02-10T06:24:31.103Z,32.2143
2023-02-10T06:25:31.158Z,30.6429
2023-02-10T06:26:31.191Z,32.1429
2023-02-10T06:27:31.220Z,31
2023-02-10T06:28:31.297Z,32
2023-02-10T06:29:31.322Z,32
2023-02-10T06:30:31.426Z,31.4286
2023-02-10T06:31:31.481Z,31.3571
2023-02-10T06:32:31.388Z,31
2023-02-10T06:33:31.425Z,31.2143
2023-02-10T06:34:31.473Z,32
2023-02-10T06:35:31.491Z,31.5
2023-02-10T06:36:31.520Z,33.1429
2023-02-10T06:37:31.539Z,29.8571
2023-02-10T06:38:31.592Z,30.7143
2023-02-10T06:39:32.658Z,32.9286
2023-02-10T06:40:31.646Z,32.5
2023-02-10T06:41:31.685Z,31.6429
2023-02-10T06:42:31.722Z,32.3571
2023-02-10T06:43:31.758Z,31.7143
2023-02-10T06:44:31.783Z,31.8571
2023-02-10T06:45:31.817Z,31.3571
2023-02-10T06:46:31.890Z,31.1429
2023-02-10T06:47:31.872Z,31.1429
2023-02-10T06:48:31.916Z,31.8571
2023-02-10T06:49:31.947Z,31.5
2023-02-10T06:50:31.973Z,32.2143
2023-02-10T06:51:32.014Z,31.3571
2023-02-10T06:52:32.024Z,33.9286
2023-02-10T06:53:32.069Z,30.6429
2023-02-10T06:54:32.091Z,30.5
2023-02-10T06:55:32.129Z,32
2023-02-10T06:56:32.165Z,31
2023-02-10T06:57:32.197Z,30.5
2023-02-10T06:58:32.228Z,30.8571
2023-02-10T06:59:32.251Z,31.4286
2023-02-10T07:00:32.288Z,31.6429
2023-02-10T07:01:32.419Z,30.3571
2023-02-10T07:02:32.390Z,29.3571
2023-02-10T07:03:32.388Z,29.8571
2023-02-10T07:04:32.419Z,29.8571
2023-02-10T07:05:32.483Z,30.9286
2023-02-10T07:06:32.488Z,30.7143
2023-02-10T07:07:32.517Z,31.7143
2023-02-10T07:08:32.542Z,31.3571
2023-02-10T07:09:32.620Z,30.6429
2023-02-10T07:10:32.626Z,30.3571
2023-02-10T07:11:32.658Z,30.9286
2023-02-10T07:12:32.684Z,30.7143
2023-02-10T07:13:32.724Z,30
2023-02-10T07:14:32.782Z,30.9286
2023-02-10T07:15:32.840Z,30.3571
2023-02-10T07:16:32.824Z,29
2023-02-10T07:17:32.852Z,30.3571
2023-02-10T07:18:32.889Z,29.9286
2023-02-10T07:19:32.949Z,30.2143
2023-02-10T07:20:32.966Z,29.6429
2023-02-10T07:21:33.010Z,29.6429
2023-02-10T07:22:33.047Z,29.5
2023-02-10T07:23:36.768Z,29.8571
2023-02-10T07:24:33.112Z,27.9286
2023-02-10T07:25:33.141Z,28.9286
2023-02-10T07:26:33.191Z,29.8571
2023-02-10T07:27:33.219Z,28.1429
2023-02-10T07:28:33.302Z,27.6429
2023-02-10T07:29:33.312Z,28.1429
2023-02-10T07:30:33.359Z,28.6429
2023-02-10T07:31:33.432Z,29.3571
2023-02-10T07:32:33.379Z,28.8571
2023-02-10T07:33:33.418Z,28.8571
2023-02-10T07:34:33.479Z,29.3571
2023-02-10T07:35:33.479Z,28.4286
2023-02-10T07:36:33.532Z,27.4286
2023-02-10T07:37:33.547Z,27.8571
2023-02-10T07:38:33.590Z,27.8571
2023-02-10T07:39:33.609Z,28
2023-02-10T07:40:33.652Z,28.3571
2023-02-10T07:41:33.673Z,27.3571
2023-02-10T07:42:33.702Z,27.2143
2023-02-10T07:43:33.790Z,27.2143
2023-02-10T07:44:33.773Z,28.5
2023-02-10T07:45:33.809Z,27.7143
2023-02-10T07:46:33.938Z,27.1429
2023-02-10T07:47:33.894Z,27.8571
2023-02-10T07:48:33.911Z,28.4286
2023-02-10T07:49:33.958Z,27.7143
2023-02-10T07:50:34.764Z,28.5
2023-02-10T07:51:34.011Z,27.4286
2023-02-10T07:52:34.039Z,28.3571
2023-02-10T07:53:34.075Z,27.2143
2023-02-10T07:54:34.118Z,28.1429
2023-02-10T07:55:34.142Z,27.9286
2023-02-10T07:56:34.179Z,27.5
2023-02-10T07:57:34.211Z,28.1429
2023-02-10T07:58:34.248Z,26.8571
2023-02-10T07:59:34.277Z,29.1429
2023-02-10T08:00:34.322Z,26.1429
2023-02-10T08:01:34.340Z,27.4286
2023-02-10T08:02:34.423Z,27.2143
2023-02-10T08:03:34.421Z,27.9286
2023-02-10T08:04:34.435Z,26.6429
2023-02-10T08:05:34.485Z,27.3571
2023-02-10T08:06:34.499Z,28.4286
2023-02-10T08:07:34.548Z,25.4286
2023-02-10T08:08:34.583Z,26.1429
2023-02-10T08:09:34.647Z,26.7143
2023-02-10T08:10:34.636Z,26.2143
2023-02-10T08:11:34.681Z,27.4286
2023-02-10T08:12:34.702Z,26.4286
2023-02-10T08:13:34.738Z,26.2143
2023-02-10T08:14:34.782Z,26.7143
2023-02-10T08:15:34.799Z,26.9286
2023-02-10T08:16:34.825Z,25.8571
2023-02-10T08:17:34.846Z,27
2023-02-10T08:18:34.883Z,26.5
2023-02-10T08:19:34.929Z,27.9286
2023-02-10T08:20:34.956Z,27
2023-02-10T08:21:34.994Z,27.5
2023-02-10T08:22:35.085Z,27.6429
2023-02-10T08:23:35.073Z,26.8571
2023-02-10T08:24:35.084Z,28.3571
2023-02-10T08:25:35.127Z,27.5
2023-02-10T08:26:35.155Z,27.3571
2023-02-10T08:27:35.207Z,27.3571
2023-02-10T08:28:35.235Z,27.8571
2023-02-10T08:29:35.300Z,28.6429
2023-02-10T08:30:35.353Z,26.2143
2023-02-10T08:31:35.344Z,26.9286
2023-02-10T08:32:35.367Z,26.7143
2023-02-10T08:33:45.890Z,29
2023-02-10T08:34:35.448Z,27.7143
2023-02-10T08:35:35.454Z,27.6429
2023-02-10T08:36:35.496Z,26.7143
2023-02-10T08:37:35.528Z,27.6429
2023-02-10T08:38:35.566Z,28.6429
2023-02-10T08:39:35.600Z,28.3571
2023-02-10T08:40:35.634Z,28.5
2023-02-10T08:41:35.679Z,29.1429
2023-02-10T08:42:35.713Z,28.5
2023-02-10T08:43:35.773Z,29.2143
2023-02-10T08:44:35.782Z,27.8571
2023-02-10T08:45:35.810Z,28.7143
2023-02-10T08:46:35.952Z,28.1429
2023-02-10T08:47:35.907Z,30
2023-02-10T08:48:35.939Z,28.3571
2023-02-10T08:49:36.035Z,28
2023-02-10T08:50:36.002Z,29.1429
2023-02-10T08:51:36.036Z,29.6429
2023-02-10T08:52:36.075Z,30.2143
2023-02-10T08:53:36.112Z,28.9286
2023-02-10T08:54:36.167Z,28.8571
2023-02-10T08:55:36.185Z,29
2023-02-10T08:56:36.215Z,30.1429
2023-02-10T08:57:36.254Z,29.4286
2023-02-10T08:58:36.288Z,30.4286
2023-02-10T08:59:36.322Z,29.7143
2023-02-10T09:00:36.366Z,29.4286
2023-02-10T09:01:36.421Z,29.5
2023-02-10T09:02:36.433Z,28.2143
2023-02-10T09:03:36.441Z,29.9286
2023-02-10T09:04:36.477Z,30.2143
2023-02-10T09:05:36.505Z,30.8571
2023-02-10T09:06:36.536Z,30.2143
2023-02-10T09:07:36.561Z,30.1429
2023-02-10T09:08:36.597Z,31.1429
2023-02-10T09:09:36.637Z,28.3571
2023-02-10T09:10:36.658Z,29.6429
2023-02-10T09:11:36.704Z,30.1429
2023-02-10T09:12:36.735Z,30.4286
2023-02-10T09:13:36.782Z,29.9286
2023-02-10T09:14:36.806Z,29.6429
2023-02-10T09:15:36.842Z,28.8571
2023-02-10T09:16:36.945Z,29.6429
2023-02-10T09:17:36.914Z,30.1429
2023-02-10T09:18:36.952Z,28.5
2023-02-10T09:19:37.060Z,29.3571
2023-02-10T09:20:37.011Z,28.7143
2023-02-10T09:21:46.586Z,28.7143
2023-02-10T09:22:37.079Z,30.1429
2023-02-10T09:23:37.127Z,30.1429
2023-02-10T09:24:37.164Z,30.2143
2023-02-10T09:25:37.189Z,30.5
2023-02-10T09:26:37.227Z,29.7143
2023-02-10T09:27:37.256Z,29.5
2023-02-10T09:28:37.296Z,29.8571
2023-02-10T09:29:37.324Z,30.1429
2023-02-10T09:30:37.363Z,30.5
2023-02-10T09:31:37.546Z,30.2143
2023-02-10T09:32:37.421Z,30.2143
2023-02-10T09:33:37.466Z,29.8571
2023-02-10T09:34:37.497Z,29.7143
2023-02-10T09:35:37.527Z,28.5
2023-02-10T09:36:37.556Z,28.9286
2023-02-10T09:37:37.589Z,30.1429
2023-02-10T09:38:37.627Z,29.8571
2023-02-10T09:39:37.691Z,29.5
2023-02-10T09:40:37.690Z,30.1429
2023-02-10T09:41:37.739Z,28.7143
2023-02-10T09:42:37.765Z,28.8571
2023-02-10T09:43:37.793Z,29.6429
2023-02-10T09:44:37.854Z,28.4286
2023-02-10T09:45:37.902Z,28.7143
2023-02-10T09:46:37.899Z,29.6429
2023-02-10T09:47:37.926Z,30
2023-02-10T09:48:37.968Z,29
2023-02-10T09:49:38.006Z,27.6429
2023-02-10T09:50:38.041Z,28.6429
2023-02-10T09:51:38.086Z,29.6429
2023-02-10T09:52:38.109Z,28.2143
2023-02-10T09:53:38.133Z,27.6429
2023-02-10T09:54:38.170Z,27.2143
2023-02-10T09:55:38.200Z,27.9286
2023-02-10T09:56:38.239Z,27.8571
2023-02-10T09:57:38.266Z,28
2023-02-10T09:58:38.309Z,27.5
2023-02-10T09:59:38.404Z,28.4286
2023-02-10T10:00:38.372Z,28.1429
2023-02-10T10:01:38.411Z,26.4286
2023-02-10T10:02:38.549Z,27.4286
2023-02-10T10:03:38.472Z,26.7143
2023-02-10T10:04:38.515Z,27.3571
2023-02-10T10:05:38.530Z,28
2023-02-10T10:06:39.855Z,26.8571
2023-02-10T10:07:38.607Z,27.8571
2023-02-10T10:08:38.649Z,26.6429
2023-02-10T10:09:38.687Z,26.9286
2023-02-10T10:10:38.703Z,27
2023-02-10T10:11:38.755Z,25.7143
2023-02-10T10:12:38.779Z,26
2023-02-10T10:13:38.799Z,26.7143
2023-02-10T10:14:38.840Z,26.7143
2023-02-10T10:15:38.870Z,25.3571
2023-02-10T10:16:38.954Z,25.3571
2023-02-10T10:17:38.943Z,26
2023-02-10T10:18:38.967Z,26.4286
2023-02-10T10:19:38.998Z,26.2143
2023-02-10T10:20:39.033Z,25
2023-02-10T10:21:39.065Z,25.9286
2023-02-10T10:22:39.121Z,25.2143
2023-02-10T10:23:39.132Z,26
2023-02-10T10:24:39.170Z,25.7143
2023-02-10T10:25:39.203Z,25.7143
2023-02-10T10:26:39.259Z,25.3571
2023-02-10T10:27:39.269Z,25.6429
2023-02-10T10:28:39.311Z,25.7143
2023-02-10T10:29:39.354Z,25.9286
2023-02-10T10:30:39.396Z,25.2143
2023-02-10T10:31:39.441Z,26.1429
2023-02-10T10:32:39.437Z,25.2143
2023-02-10T10:33:41.056Z,25.4286
2023-02-10T10:34:39.518Z,24.6429
2023-02-10T10:35:39.569Z,24.6429
2023-02-10T10:36:39.580Z,26.6429
2023-02-10T10:37:39.618Z,25.8571
2023-02-10T10:38:39.645Z,23.8571
2023-02-10T10:39:39.788Z,24.8571
2023-02-10T10:40:39.739Z,24.4286
2023-02-10T10:41:39.736Z,24.3571
2023-02-10T10:42:39.779Z,25.1429
2023-02-10T10:43:39.808Z,25.2143
2023-02-10T10:44:39.827Z,25
2023-02-10T10:45:39.890Z,24.8571
2023-02-10T10:46:39.900Z,23.9286
2023-02-10T10:47:39.923Z,25.9286
2023-02-10T10:48:39.978Z,23.9286
2023-02-10T10:49:40.012Z,25.1429
2023-02-10T10:50:40.042Z,24.6429
2023-02-10T10:51:40.077Z,25.3571
2023-02-10T10:52:40.119Z,24
2023-02-10T10:53:40.147Z,24
2023-02-10T10:54:40.201Z,24.1429
2023-02-10T10:55:40.227Z,24.5
2023-02-10T10:56:40.251Z,24.2143
2023-02-10T10:57:40.279Z,23.7143
2023-02-10T10:58:40.330Z,24.1429
2023-02-10T10:59:40.352Z,24.7143
2023-02-10T11:00:40.396Z,25
2023-02-10T11:01:40.506Z,24.7143
2023-02-10T11:02:40.540Z,24.1429
2023-02-10T11:03:40.490Z,23.4286
2023-02-10T11:04:40.512Z,25.3571
2023-02-10T11:05:40.549Z,25.7143
2023-02-10T11:06:40.589Z,25.2143
2023-02-10T11:07:40.626Z,24.5
2023-02-10T11:08:40.659Z,24.9286
2023-02-10T11:09:40.704Z,24.9286
2023-02-10T11:10:40.728Z,25.5
2023-02-10T11:11:40.763Z,25
2023-02-10T11:12:40.791Z,24
2023-02-10T11:13:40.822Z,25
2023-02-10T11:14:40.872Z,24.4286
2023-02-10T11:15:40.912Z,25.6429
2023-02-10T11:16:41.004Z,25.1429
2023-02-10T11:17:40.965Z,25.3571
2023-02-10T11:18:41.000Z,26.3571
2023-02-10T11:19:49.198Z,26.4286
2023-02-10T11:20:41.073Z,24.5
2023-02-10T11:21:41.104Z,25.1429
2023-02-10T11:22:41.139Z,25.3571
2023-02-10T11:23:41.165Z,26.8571
2023-02-10T11:24:41.211Z,25
2023-02-10T11:25:41.253Z,25.8571
2023-02-10T11:26:41.276Z,26.1429
2023-02-10T11:27:41.304Z,26.2143
2023-02-10T11:28:41.348Z,27.3571
2023-02-10T11:29:41.384Z,25.1429
2023-02-10T11:30:41.516Z,27.3571
2023-02-10T11:31:41.553Z,26.9286
2023-02-10T11:32:41.474Z,25.5
2023-02-10T11:33:41.504Z,26.9286
2023-02-10T11:34:41.542Z,26
2023-02-10T11:35:41.582Z,26.7143
2023-02-10T11:36:41.609Z,27.4286
2023-02-10T11:37:41.646Z,26.1429
2023-02-10T11:38:41.672Z,26.4286
2023-02-10T11:39:41.743Z,26.5
2023-02-10T11:40:41.734Z,25.9286
2023-02-10T11:41:41.775Z,26.3571
2023-02-10T11:42:41.811Z,25.6429
2023-02-10T11:43:41.844Z,26.4286
2023-02-10T11:44:41.898Z,25.1429
2023-02-10T11:45:41.922Z,26.5
2023-02-10T11:46:41.952Z,25
2023-02-10T11:47:41.995Z,25.4286
2023-02-10T11:48:42.031Z,25.1429
2023-02-10T11:49:42.071Z,25.1429
2023-02-10T11:50:42.099Z,25.7143
2023-02-10T11:51:42.127Z,26.6429
2023-02-10T11:52:42.164Z,26.4286
2023-02-10T11:53:42.228Z,26.3571
2023-02-10T11:54:42.228Z,25.5
2023-02-10T11:55:42.276Z,25.2143
2023-02-10T11:56:42.312Z,25.9286
2023-02-10T11:57:42.340Z,25
2023-02-10T11:58:42.366Z,26.1429
2023-02-10T11:59:42.403Z,25.9286
2023-02-10T12:00:42.434Z,24.2143
2023-02-10T12:01:42.485Z,26
2023-02-10T12:02:42.566Z,25.6429
2023-02-10T12:03:42.534Z,25.4286
2023-02-10T12:04:42.572Z,25.6429
2023-02-10T12:05:42.753Z,26.4286
2023-02-10T12:06:42.623Z,27.1429
2023-02-10T12:07:42.658Z,26.2143
2023-02-10T12:08:42.696Z,25.5
2023-02-10T12:09:42.754Z,26.4286
2023-02-10T12:10:42.758Z,27
2023-02-10T12:11:42.818Z,26.6429
2023-02-10T12:12:42.815Z,26.5
2023-02-10T12:13:42.846Z,26
2023-02-10T12:14:42.881Z,25.9286
2023-02-10T12:15:42.962Z,26.4286
2023-02-10T12:16:42.934Z,25.6429
2023-02-10T12:17:42.977Z,26.6429
2023-02-10T12:18:43.013Z,26.2143
2023-02-10T12:19:43.061Z,25.7143
2023-02-10T12:20:43.105Z,25.2143
2023-02-10T12:21:43.146Z,26.3571
2023-02-10T12:22:43.152Z,25.3571
2023-02-10T12:23:43.211Z,26.3571
2023-02-10T12:24:43.221Z,25.1429